Vinlandia — H8RO — position and weather

sailwx.info

Track history (hours):
 
Tides and Currents Weather Stations Pressure Air Temp Water Temp Dewpoint Dewpoint Depression Visibility Wind Speed Wind Dir Waves Ship Positions

Vinlandia

Last reported at 2018-Feb-19 10:44 UTC. Time now 2018-Feb-19 12:11 UTC.
Position N 45°27' E 012°14'.

Length 103 m; draft 5.8 m.

Type: Ship. MMSI: 353830000.

Date/timePositionNaut miles runAvg speedWind from/ knotsBaromVisibWave heightAir tempDewpointWater temp
2018-Feb-19 10:44N 45°27' E 012°14'0 0.0
2018-Feb-19 10:26N 45°27' E 012°14'0 0.0
2018-Feb-19 07:41N 45°27' E 012°14'0 0.0
2018-Feb-19 07:26N 45°27' E 012°14'0 0.0
2018-Feb-19 06:59N 45°27' E 012°14'0 0.6
2018-Feb-19 06:30N 45°27' E 012°14'4 7.0
2018-Feb-19 06:00N 45°24' E 012°16'4 8.3
2018-Feb-19 05:30N 45°20' E 012°18'3 5.4
2018-Feb-19 05:00N 45°20' E 012°22'0 0.6
2018-Feb-19 04:29N 45°20' E 012°22'0 0.0
2018-Feb-19 03:59N 45°20' E 012°22'0 0.0
2018-Feb-19 03:29N 45°20' E 012°22'0 0.0
2018-Feb-19 02:59N 45°20' E 012°22'0 0.0
2018-Feb-19 02:29N 45°20' E 012°22'0 0.0
2018-Feb-19 01:59N 45°20' E 012°22'0 0.0
2018-Feb-19 01:26N 45°20' E 012°22'0 0.0
2018-Feb-19 00:59N 45°20' E 012°22'0 0.0
2018-Feb-19 00:29N 45°20' E 012°22'0 0.0
2018-Feb-18 23:59N 45°20' E 012°22'0 0.0
2018-Feb-18 23:29N 45°20' E 012°22'0 0.0
2018-Feb-18 22:59N 45°20' E 012°22'0 0.0
2018-Feb-18 22:29N 45°20' E 012°22'0 0.0
2018-Feb-18 21:59N 45°20' E 012°22'0 0.0
2018-Feb-18 21:29N 45°20' E 012°22'0 0.0
2018-Feb-18 20:59N 45°20' E 012°22'1 2.2
2018-Feb-18 20:30N 45°20' E 012°23'511.1
2018-Feb-18 20:00N 45°18' E 012°30'610.9
2018-Feb-18 19:29N 45°14' E 012°37'510.7
2018-Feb-18 19:00N 45°11' E 012°43'511.0
2018-Feb-18 18:30N 45°08' E 012°49'510.9
2018-Feb-18 18:00N 45°03' E 012°52'611.3
2018-Feb-18 17:30N 44°58' E 012°55'511.0
2018-Feb-18 17:00N 44°53' E 012°58'611.1
2018-Feb-18 16:30N 44°48' E 013°02'610.6
2018-Feb-18 15:59N 44°42' E 013°04'5 9.9
2018-Feb-18 15:26N 44°37' E 013°06'6 9.3
2018-Feb-18 14:48N 44°31' E 013°08'3 9.0
2018-Feb-18 14:30N 44°29' E 013°10'36011.2
2018-Feb-17 06:28N 40°02' E 018°36'510.1
2018-Feb-17 06:00N 39°57' E 018°34'510.4
2018-Feb-17 05:30N 39°52' E 018°32'5011.1
2018-Feb-17 00:58N 39°15' E 017°49'511.3
2018-Feb-17 00:30N 39°11' E 017°45'11811.2
2018-Feb-16 14:03N 37°52' E 015°53'111.5
2018-Feb-16 14:00N 37°52' E 015°52'611.6
2018-Feb-16 13:30N 37°52' E 015°45'711.4
2018-Feb-16 12:55N 37°57' E 015°39'511.5
2018-Feb-16 12:28N 38°01' E 015°35'612.7
2018-Feb-16 11:59N 38°07' E 015°35'613.3
2018-Feb-16 11:30N 38°13' E 015°36'5 9.9
2018-Feb-16 11:00N 38°18' E 015°39'611.9
2018-Feb-16 10:30N 38°21' E 015°32'612.1
2018-Feb-16 10:00N 38°21' E 015°25'611.8
2018-Feb-16 09:30N 38°20' E 015°17'612.4
2018-Feb-16 09:00N 38°20' E 015°10'612.6
2018-Feb-16 08:30N 38°19' E 015°02'612.4
2018-Feb-16 08:00N 38°19' E 014°53'3811.8
2018-Feb-16 04:49N 38°22' E 014°06'612.2
2018-Feb-16 04:21N 38°22' E 013°59'511.9
2018-Feb-16 03:57N 38°22' E 013°52'511.8
2018-Feb-16 03:30N 38°23' E 013°46'611.7
2018-Feb-16 03:00N 38°23' E 013°38'611.8
2018-Feb-16 02:30N 38°24' E 013°31'611.8
2018-Feb-16 02:00N 38°24' E 013°23'611.8
2018-Feb-16 01:29N 38°24' E 013°15'611.6
2018-Feb-16 01:00N 38°25' E 013°08'611.2
2018-Feb-16 00:30N 38°25' E 013°01'510.9
2018-Feb-16 00:00N 38°26' E 012°54'46211.3
2018-Feb-14 07:08N 39°02' E 003°04'211.2
2018-Feb-14 07:00N 39°02' E 003°02'1511.1
2018-Feb-14 05:36N 39°04' E 002°43'111.1
2018-Feb-14 05:30N 39°04' E 002°41'14111.7
2018-Feb-13 17:27N 39°26' W 000°18'1 2.9
2018-Feb-13 17:00N 39°27' W 000°19'0 0.0
2018-Feb-13 16:30N 39°27' W 000°19'0 0.0
2018-Feb-13 16:00N 39°27' W 000°19'0 0.0
2018-Feb-13 15:30N 39°27' W 000°19'0 0.0
2018-Feb-13 15:00N 39°27' W 000°19'0 0.0
2018-Feb-13 14:30N 39°27' W 000°19'0 0.0
2018-Feb-13 14:00N 39°27' W 000°19'0 0.0
2018-Feb-13 13:30N 39°27' W 000°19'0 0.0
2018-Feb-13 13:00N 39°27' W 000°19'0 0.0
2018-Feb-13 12:30N 39°27' W 000°19'0 0.0
2018-Feb-13 12:00N 39°27' W 000°19'0 0.0
2018-Feb-13 11:27N 39°27' W 000°19'0 0.0
2018-Feb-13 10:59N 39°27' W 000°19'0 0.0
2018-Feb-13 10:28N 39°27' W 000°19'0 0.0
2018-Feb-13 09:58N 39°27' W 000°19'0 0.0
2018-Feb-13 09:28N 39°27' W 000°19'0 0.0
2018-Feb-13 08:58N 39°27' W 000°19'0 0.0
2018-Feb-13 08:25N 39°27' W 000°19'0 0.0
2018-Feb-13 07:55N 39°27' W 000°19'0 0.0
2018-Feb-13 07:25N 39°27' W 000°19'0 0.0
2018-Feb-13 06:58N 39°27' W 000°19'0 0.0
2018-Feb-13 06:28N 39°27' W 000°19'0 0.0
2018-Feb-13 05:58N 39°27' W 000°19'0 0.0
2018-Feb-13 05:28N 39°27' W 000°19'0 0.0
2018-Feb-13 04:58N 39°27' W 000°19'0 0.0
2018-Feb-13 04:28N 39°27' W 000°19'0 0.0
2018-Feb-13 03:58N 39°27' W 000°19'0 0.0
2018-Feb-13 03:28N 39°27' W 000°19'0 0.0
2018-Feb-13 02:58N 39°27' W 000°19'0 0.0
2018-Feb-13 02:25N 39°27' W 000°19'0 0.0
2018-Feb-13 01:58N 39°27' W 000°19'0 0.0
2018-Feb-13 01:28N 39°27' W 000°19'0 0.0
2018-Feb-13 00:58N 39°27' W 000°19'0 0.0
2018-Feb-13 00:28N 39°27' W 000°19'0 0.0
2018-Feb-12 23:58N 39°27' W 000°19'0 0.0
2018-Feb-12 23:28N 39°27' W 000°19'0 0.0
2018-Feb-12 22:58N 39°27' W 000°19'0 0.0
2018-Feb-12 22:28N 39°27' W 000°19'0 0.0
2018-Feb-12 21:58N 39°27' W 000°19'0 0.0
2018-Feb-12 21:28N 39°27' W 000°19'0 0.0
2018-Feb-12 20:58N 39°27' W 000°19'0 0.0
2018-Feb-12 20:28N 39°27' W 000°19'0 0.0
2018-Feb-12 19:58N 39°27' W 000°19'0 0.0
2018-Feb-12 19:28N 39°27' W 000°19'0 0.0
2018-Feb-12 18:58N 39°27' W 000°19'0 0.0
2018-Feb-12 18:28N 39°27' W 000°19'0 0.0
2018-Feb-12 17:58N 39°27' W 000°19'0 0.0
2018-Feb-12 17:25N 39°27' W 000°19'0 0.0
2018-Feb-12 16:55N 39°27' W 000°19'0 0.0
2018-Feb-12 16:28N 39°27' W 000°19'0 0.0
2018-Feb-12 15:58N 39°27' W 000°19'0 0.0
2018-Feb-12 15:16N 39°27' W 000°19'0 0.0
2018-Feb-12 14:58N 39°27' W 000°19'0 0.0
2018-Feb-12 14:28N 39°27' W 000°19'0 0.0
2018-Feb-12 14:01N 39°27' W 000°19'0 0.0
2018-Feb-12 13:28N 39°27' W 000°19'0 0.0
2018-Feb-12 12:58N 39°27' W 000°19'0 0.0
2018-Feb-12 12:30N 39°27' W 000°19'0 0.0
2018-Feb-12 11:57N 39°27' W 000°19'0 0.0
2018-Feb-12 11:24N 39°27' W 000°19'0 0.0
2018-Feb-12 11:00N 39°27' W 000°19'0 0.0
2018-Feb-12 10:30N 39°27' W 000°19'0 0.0
2018-Feb-12 10:00N 39°27' W 000°19'0 0.0
2018-Feb-12 09:30N 39°27' W 000°19'0 0.0
2018-Feb-12 09:00N 39°27' W 000°19'0 0.0
2018-Feb-12 08:30N 39°27' W 000°19'0 0.0
2018-Feb-12 08:00N 39°27' W 000°19'0 0.0
2018-Feb-12 07:27N 39°27' W 000°19'0 0.0
2018-Feb-12 06:57N 39°27' W 000°19'0 0.0
2018-Feb-12 06:30N 39°27' W 000°19'0 0.0
2018-Feb-12 05:51N 39°27' W 000°19'0 0.0
2018-Feb-12 05:30N 39°27' W 000°19'0 0.0
2018-Feb-12 05:00N 39°27' W 000°19'0 0.0
2018-Feb-12 04:27N 39°27' W 000°19'0 0.0
2018-Feb-12 04:00N 39°27' W 000°19'0 0.0
2018-Feb-12 03:30N 39°27' W 000°19'0 0.0
2018-Feb-12 03:00N 39°27' W 000°19'0 0.0
2018-Feb-12 02:30N 39°27' W 000°19'0 0.0
2018-Feb-12 02:00N 39°27' W 000°19'0 0.0
2018-Feb-12 01:30N 39°27' W 000°19'0 0.0
2018-Feb-12 01:00N 39°27' W 000°19'0 0.0
2018-Feb-12 00:30N 39°27' W 000°19'0 0.0
2018-Feb-12 00:00N 39°27' W 000°19'0 0.0
2018-Feb-11 23:30N 39°27' W 000°19'0 0.0
2018-Feb-11 22:57N 39°27' W 000°19'0 0.0
2018-Feb-11 22:30N 39°27' W 000°19'0 0.0
2018-Feb-11 22:00N 39°27' W 000°19'0 0.0
2018-Feb-11 21:27N 39°27' W 000°19'0 0.0
2018-Feb-11 21:00N 39°27' W 000°19'0 0.0
2018-Feb-11 20:30N 39°27' W 000°19'0 0.0
2018-Feb-11 20:00N 39°27' W 000°19'0 0.0
2018-Feb-11 19:30N 39°27' W 000°19'2 3.6
2018-Feb-11 18:59N 39°26' W 000°18'2 0.2
2018-Feb-11 12:05N 39°24' W 000°18'0 3.9
2018-Feb-11 12:00N 39°24' W 000°17'100 4.6
2018-Feb-10 14:06N 37°44' W 000°22'111.4
2018-Feb-10 14:00N 37°43' W 000°23'611.7
2018-Feb-10 13:30N 37°38' W 000°27'611.7
2018-Feb-10 13:00N 37°33' W 000°31'911.4
2018-Feb-10 12:14N 37°27' W 000°39'311.1
2018-Feb-10 11:59N 37°25' W 000°42'511.1
2018-Feb-10 11:30N 37°22' W 000°47'610.9
2018-Feb-10 10:59N 37°18' W 000°52'  
Track history (hours):
 
Tides and Currents Weather Stations Pressure Air Temp Water Temp Dewpoint Dewpoint Depression Visibility Wind Speed Wind Dir Waves Ship Positions

Vinlandia

Last reported at 2018-Feb-19 10:44 UTC. Time now 2018-Feb-19 12:11 UTC.
Position N 45°27' E 012°14'.

Length 103 m; draft 5.8 m.

Type: Ship. MMSI: 353830000.

Date/timePositionNaut miles runAvg speedWind from/ knotsBaromVisibWave heightAir tempDewpointWater temp
2018-Feb-19 10:44N 45°27' E 012°14'0 0.0
2018-Feb-19 10:26N 45°27' E 012°14'0 0.0
2018-Feb-19 07:41N 45°27' E 012°14'0 0.0
2018-Feb-19 07:26N 45°27' E 012°14'0 0.0
2018-Feb-19 06:59N 45°27' E 012°14'0 0.6
2018-Feb-19 06:30N 45°27' E 012°14'4 7.0
2018-Feb-19 06:00N 45°24' E 012°16'4 8.3
2018-Feb-19 05:30N 45°20' E 012°18'3 5.4
2018-Feb-19 05:00N 45°20' E 012°22'0 0.6
2018-Feb-19 04:29N 45°20' E 012°22'0 0.0
2018-Feb-19 03:59N 45°20' E 012°22'0 0.0
2018-Feb-19 03:29N 45°20' E 012°22'0 0.0
2018-Feb-19 02:59N 45°20' E 012°22'0 0.0
2018-Feb-19 02:29N 45°20' E 012°22'0 0.0
2018-Feb-19 01:59N 45°20' E 012°22'0 0.0
2018-Feb-19 01:26N 45°20' E 012°22'0 0.0
2018-Feb-19 00:59N 45°20' E 012°22'0 0.0
2018-Feb-19 00:29N 45°20' E 012°22'0 0.0
2018-Feb-18 23:59N 45°20' E 012°22'0 0.0
2018-Feb-18 23:29N 45°20' E 012°22'0 0.0
2018-Feb-18 22:59N 45°20' E 012°22'0 0.0
2018-Feb-18 22:29N 45°20' E 012°22'0 0.0
2018-Feb-18 21:59N 45°20' E 012°22'0 0.0
2018-Feb-18 21:29N 45°20' E 012°22'0 0.0
2018-Feb-18 20:59N 45°20' E 012°22'1 2.2
2018-Feb-18 20:30N 45°20' E 012°23'511.1
2018-Feb-18 20:00N 45°18' E 012°30'610.9
2018-Feb-18 19:29N 45°14' E 012°37'510.7
2018-Feb-18 19:00N 45°11' E 012°43'511.0
2018-Feb-18 18:30N 45°08' E 012°49'510.9
2018-Feb-18 18:00N 45°03' E 012°52'611.3
2018-Feb-18 17:30N 44°58' E 012°55'511.0
2018-Feb-18 17:00N 44°53' E 012°58'611.1
2018-Feb-18 16:30N 44°48' E 013°02'610.6
2018-Feb-18 15:59N 44°42' E 013°04'5 9.9
2018-Feb-18 15:26N 44°37' E 013°06'6 9.3
2018-Feb-18 14:48N 44°31' E 013°08'3 9.0
2018-Feb-18 14:30N 44°29' E 013°10'36011.2
2018-Feb-17 06:28N 40°02' E 018°36'510.1
2018-Feb-17 06:00N 39°57' E 018°34'510.4
2018-Feb-17 05:30N 39°52' E 018°32'5011.1
2018-Feb-17 00:58N 39°15' E 017°49'511.3
2018-Feb-17 00:30N 39°11' E 017°45'11811.2
2018-Feb-16 14:03N 37°52' E 015°53'111.5
2018-Feb-16 14:00N 37°52' E 015°52'611.6
2018-Feb-16 13:30N 37°52' E 015°45'711.4
2018-Feb-16 12:55N 37°57' E 015°39'511.5
2018-Feb-16 12:28N 38°01' E 015°35'612.7
2018-Feb-16 11:59N 38°07' E 015°35'613.3
2018-Feb-16 11:30N 38°13' E 015°36'5 9.9
2018-Feb-16 11:00N 38°18' E 015°39'611.9
2018-Feb-16 10:30N 38°21' E 015°32'612.1
2018-Feb-16 10:00N 38°21' E 015°25'611.8
2018-Feb-16 09:30N 38°20' E 015°17'612.4
2018-Feb-16 09:00N 38°20' E 015°10'612.6
2018-Feb-16 08:30N 38°19' E 015°02'612.4
2018-Feb-16 08:00N 38°19' E 014°53'3811.8
2018-Feb-16 04:49N 38°22' E 014°06'612.2
2018-Feb-16 04:21N 38°22' E 013°59'511.9
2018-Feb-16 03:57N 38°22' E 013°52'511.8
2018-Feb-16 03:30N 38°23' E 013°46'611.7
2018-Feb-16 03:00N 38°23' E 013°38'611.8
2018-Feb-16 02:30N 38°24' E 013°31'611.8
2018-Feb-16 02:00N 38°24' E 013°23'611.8
2018-Feb-16 01:29N 38°24' E 013°15'611.6
2018-Feb-16 01:00N 38°25' E 013°08'611.2
2018-Feb-16 00:30N 38°25' E 013°01'510.9
2018-Feb-16 00:00N 38°26' E 012°54'46211.3
2018-Feb-14 07:08N 39°02' E 003°04'211.2
2018-Feb-14 07:00N 39°02' E 003°02'1511.1
2018-Feb-14 05:36N 39°04' E 002°43'111.1
2018-Feb-14 05:30N 39°04' E 002°41'14111.7
2018-Feb-13 17:27N 39°26' W 000°18'1 2.9
2018-Feb-13 17:00N 39°27' W 000°19'0 0.0
2018-Feb-13 16:30N 39°27' W 000°19'0 0.0
2018-Feb-13 16:00N 39°27' W 000°19'0 0.0
2018-Feb-13 15:30N 39°27' W 000°19'0 0.0
2018-Feb-13 15:00N 39°27' W 000°19'0 0.0
2018-Feb-13 14:30N 39°27' W 000°19'0 0.0
2018-Feb-13 14:00N 39°27' W 000°19'0 0.0
2018-Feb-13 13:30N 39°27' W 000°19'0 0.0
2018-Feb-13 13:00N 39°27' W 000°19'0 0.0
2018-Feb-13 12:30N 39°27' W 000°19'0 0.0
2018-Feb-13 12:00N 39°27' W 000°19'0 0.0
2018-Feb-13 11:27N 39°27' W 000°19'0 0.0
2018-Feb-13 10:59N 39°27' W 000°19'0 0.0
2018-Feb-13 10:28N 39°27' W 000°19'0 0.0
2018-Feb-13 09:58N 39°27' W 000°19'0 0.0
2018-Feb-13 09:28N 39°27' W 000°19'0 0.0
2018-Feb-13 08:58N 39°27' W 000°19'0 0.0
2018-Feb-13 08:25N 39°27' W 000°19'0 0.0
2018-Feb-13 07:55N 39°27' W 000°19'0 0.0
2018-Feb-13 07:25N 39°27' W 000°19'0 0.0
2018-Feb-13 06:58N 39°27' W 000°19'0 0.0
2018-Feb-13 06:28N 39°27' W 000°19'0 0.0
2018-Feb-13 05:58N 39°27' W 000°19'0 0.0
2018-Feb-13 05:28N 39°27' W 000°19'0 0.0
2018-Feb-13 04:58N 39°27' W 000°19'0 0.0
2018-Feb-13 04:28N 39°27' W 000°19'0 0.0
2018-Feb-13 03:58N 39°27' W 000°19'0 0.0
2018-Feb-13 03:28N 39°27' W 000°19'0 0.0
2018-Feb-13 02:58N 39°27' W 000°19'0 0.0
2018-Feb-13 02:25N 39°27' W 000°19'0 0.0
2018-Feb-13 01:58N 39°27' W 000°19'0 0.0
2018-Feb-13 01:28N 39°27' W 000°19'0 0.0
2018-Feb-13 00:58N 39°27' W 000°19'0 0.0
2018-Feb-13 00:28N 39°27' W 000°19'0 0.0
2018-Feb-12 23:58N 39°27' W 000°19'0 0.0
2018-Feb-12 23:28N 39°27' W 000°19'0 0.0
2018-Feb-12 22:58N 39°27' W 000°19'0 0.0
2018-Feb-12 22:28N 39°27' W 000°19'0 0.0
2018-Feb-12 21:58N 39°27' W 000°19'0 0.0
2018-Feb-12 21:28N 39°27' W 000°19'0 0.0
2018-Feb-12 20:58N 39°27' W 000°19'0 0.0
2018-Feb-12 20:28N 39°27' W 000°19'0 0.0
2018-Feb-12 19:58N 39°27' W 000°19'0 0.0
2018-Feb-12 19:28N 39°27' W 000°19'0 0.0
2018-Feb-12 18:58N 39°27' W 000°19'0 0.0
2018-Feb-12 18:28N 39°27' W 000°19'0 0.0
2018-Feb-12 17:58N 39°27' W 000°19'0 0.0
2018-Feb-12 17:25N 39°27' W 000°19'0 0.0
2018-Feb-12 16:55N 39°27' W 000°19'0 0.0
2018-Feb-12 16:28N 39°27' W 000°19'0 0.0
2018-Feb-12 15:58N 39°27' W 000°19'0 0.0
2018-Feb-12 15:16N 39°27' W 000°19'0 0.0
2018-Feb-12 14:58N 39°27' W 000°19'0 0.0
2018-Feb-12 14:28N 39°27' W 000°19'0 0.0
2018-Feb-12 14:01N 39°27' W 000°19'0 0.0
2018-Feb-12 13:28N 39°27' W 000°19'0 0.0
2018-Feb-12 12:58N 39°27' W 000°19'0 0.0
2018-Feb-12 12:30N 39°27' W 000°19'0 0.0
2018-Feb-12 11:57N 39°27' W 000°19'0 0.0
2018-Feb-12 11:24N 39°27' W 000°19'0 0.0
2018-Feb-12 11:00N 39°27' W 000°19'0 0.0
2018-Feb-12 10:30N 39°27' W 000°19'0 0.0
2018-Feb-12 10:00N 39°27' W 000°19'0 0.0
2018-Feb-12 09:30N 39°27' W 000°19'0 0.0
2018-Feb-12 09:00N 39°27' W 000°19'0 0.0
2018-Feb-12 08:30N 39°27' W 000°19'0 0.0
2018-Feb-12 08:00N 39°27' W 000°19'0 0.0
2018-Feb-12 07:27N 39°27' W 000°19'0 0.0
2018-Feb-12 06:57N 39°27' W 000°19'0 0.0
2018-Feb-12 06:30N 39°27' W 000°19'0 0.0
2018-Feb-12 05:51N 39°27' W 000°19'0 0.0
2018-Feb-12 05:30N 39°27' W 000°19'0 0.0
2018-Feb-12 05:00N 39°27' W 000°19'0 0.0
2018-Feb-12 04:27N 39°27' W 000°19'0 0.0
2018-Feb-12 04:00N 39°27' W 000°19'0 0.0
2018-Feb-12 03:30N 39°27' W 000°19'0 0.0
2018-Feb-12 03:00N 39°27' W 000°19'0 0.0
2018-Feb-12 02:30N 39°27' W 000°19'0 0.0
2018-Feb-12 02:00N 39°27' W 000°19'0 0.0
2018-Feb-12 01:30N 39°27' W 000°19'0 0.0
2018-Feb-12 01:00N 39°27' W 000°19'0 0.0
2018-Feb-12 00:30N 39°27' W 000°19'0 0.0
2018-Feb-12 00:00N 39°27' W 000°19'0 0.0
2018-Feb-11 23:30N 39°27' W 000°19'0 0.0
2018-Feb-11 22:57N 39°27' W 000°19'0 0.0
2018-Feb-11 22:30N 39°27' W 000°19'0 0.0
2018-Feb-11 22:00N 39°27' W 000°19'0 0.0
2018-Feb-11 21:27N 39°27' W 000°19'0 0.0
2018-Feb-11 21:00N 39°27' W 000°19'0 0.0
2018-Feb-11 20:30N 39°27' W 000°19'0 0.0
2018-Feb-11 20:00N 39°27' W 000°19'0 0.0
2018-Feb-11 19:30N 39°27' W 000°19'2 3.6
2018-Feb-11 18:59N 39°26' W 000°18'2 0.2
2018-Feb-11 12:05N 39°24' W 000°18'0 3.9
2018-Feb-11 12:00N 39°24' W 000°17'100 4.6
2018-Feb-10 14:06N 37°44' W 000°22'111.4
2018-Feb-10 14:00N 37°43' W 000°23'611.7
2018-Feb-10 13:30N 37°38' W 000°27'611.7
2018-Feb-10 13:00N 37°33' W 000°31'911.4
2018-Feb-10 12:14N 37°27' W 000°39'311.1
2018-Feb-10 11:59N 37°25' W 000°42'511.1
2018-Feb-10 11:30N 37°22' W 000°47'610.9
2018-Feb-10 10:59N 37°18' W 000°52'  

Dump ship's entire track history